Time;durP1;ratioP1;P1;durP2;ratioP2;P2;SDS_P1;SDS_P2;PMS_P1;PMS_P2;Temp;Humidity;BMP_temperature;BMP_pressure;BME280_temperature;BME280_humidity;BME280_pressure;Samples;Min_cycle;Max_cycle;Signal;HPM_P1;HPM_P2
2023/07/02 00:00:14;;;;;;;3.50;2.92;;;17.80;99.90;;;19.52;60.39;97064.28;5032702;28;20049;-53
2023/07/02 00:02:41;;;;;;;5.13;3.30;;;17.80;99.90;;;19.46;60.42;97064.19;5033003;28;20056;-53
2023/07/02 00:05:09;;;;;;;5.10;2.80;;;17.80;99.90;;;19.44;60.71;97054.66;5033004;28;20057;-54
2023/07/02 00:07:37;;;;;;;4.10;3.22;;;17.70;99.90;;;19.39;60.67;97068.84;5032911;28;20042;-52
2023/07/02 00:10:05;;;;;;;3.67;3.03;;;17.70;99.90;;;19.36;60.83;97066.59;5032685;28;20049;-54
2023/07/02 00:12:33;;;;;;;4.43;3.10;;;17.70;99.90;;;19.36;60.60;97076.59;5032043;28;20041;-55
2023/07/02 00:15:01;;;;;;;4.25;3.35;;;17.70;99.90;;;19.27;60.81;97073.41;5032946;28;20064;-54
2023/07/02 00:17:29;;;;;;;7.10;3.03;;;17.60;99.90;;;19.25;60.97;97070.94;5032654;28;20037;-52
2023/07/02 00:19:57;;;;;;;7.13;3.95;;;17.60;99.90;;;19.23;60.90;97070.34;5031112;28;20041;-55
2023/07/02 00:22:25;;;;;;;3.97;3.20;;;17.60;99.90;;;19.24;60.81;97068.47;5032542;28;20045;-54
2023/07/02 00:24:55;;;;;;;4.82;3.78;;;17.60;99.90;;;19.24;60.84;97061.19;5032109;28;20419;-51
2023/07/02 00:27:23;;;;;;;4.38;2.97;;;17.60;99.90;;;19.22;60.77;97063.28;5024129;28;20041;-51
2023/07/02 00:29:51;;;;;;;4.25;2.97;;;17.50;99.90;;;19.19;60.97;97068.31;5032164;28;20038;-53
2023/07/02 00:32:18;;;;;;;3.85;3.20;;;17.50;99.90;;;19.14;60.79;97070.91;5032892;28;20045;-55
2023/07/02 00:34:46;;;;;;;5.38;3.97;;;17.50;99.90;;;19.11;60.87;97072.16;5031064;28;20041;-55
2023/07/02 00:37:15;;;;;;;4.03;3.13;;;17.40;99.90;;;19.15;60.69;97080.63;5030893;28;20041;-54
2023/07/02 00:39:42;;;;;;;4.55;3.13;;;17.40;99.90;;;19.15;60.69;97076.03;5032454;28;20037;-54
2023/07/02 00:42:11;;;;;;;4.32;2.97;;;17.50;99.90;;;19.14;60.80;97073.59;5030696;28;20049;-54
2023/07/02 00:44:41;;;;;;;5.18;3.40;;;17.40;99.90;;;19.13;60.89;97077.34;5032212;28;20038;-54
2023/07/02 00:47:09;;;;;;;4.45;3.22;;;17.40;99.90;;;19.03;61.07;97077.88;5030321;28;20061;-54
2023/07/02 00:49:37;;;;;;;3.95;3.30;;;17.30;99.90;;;18.99;61.21;97076.69;5029865;28;20041;-55
2023/07/02 00:52:06;;;;;;;5.90;3.20;;;17.30;99.90;;;18.96;61.31;97072.59;5030514;28;20057;-53
2023/07/02 00:54:33;;;;;;;5.18;4.28;;;17.20;99.90;;;18.95;61.16;97076.34;5030400;28;20394;-54
2023/07/02 00:57:03;;;;;;;4.15;3.15;;;17.20;99.90;;;18.95;61.23;97079.03;5031607;28;20040;-55
2023/07/02 00:59:34;;;;;;;3.75;3.22;;;17.30;99.90;;;18.97;61.34;97076.09;5030364;28;20044;-53
2023/07/02 01:02:03;;;;;;;3.95;3.30;;;17.30;99.90;;;19.01;60.96;97078.09;5030537;28;20045;-55
2023/07/02 01:04:31;;;;;;;4.93;2.60;;;17.30;99.90;;;19.02;60.89;97087.03;5014198;28;20050;-51
2023/07/02 01:06:59;;;;;;;3.22;2.92;;;17.30;99.90;;;19.02;60.72;97087.03;5030319;28;20053;-56
2023/07/02 01:09:28;;;;;;;5.85;2.92;;;17.30;99.90;;;19.02;60.86;97076.25;5029968;28;20505;-54
2023/07/02 01:12:06;;;;;;;3.85;3.20;;;17.30;99.90;;;18.99;60.66;97077.50;5030381;28;20049;-53
2023/07/02 01:14:40;;;;;;;4.90;3.28;;;17.20;99.90;;;18.94;60.92;97071.16;5030943;28;20523;-54
2023/07/02 01:17:09;;;;;;;3.72;3.05;;;17.20;99.90;;;18.86;61.02;97073.16;5031370;28;20052;-53
2023/07/02 01:19:51;;;;;;;4.70;3.38;;;17.20;99.90;;;18.90;61.02;97081.56;5030207;28;20048;-54
2023/07/02 01:22:25;;;;;;;3.60;3.08;;;17.20;99.90;;;18.88;61.02;97081.84;5030358;28;20520;-54
2023/07/02 01:24:54;;;;;;;4.55;3.03;;;17.20;99.90;;;18.89;60.98;97088.03;5030585;28;20048;-55
2023/07/02 01:27:22;;;;;;;3.53;3.13;;;17.10;99.90;;;18.88;61.10;97089.06;5030979;28;20532;-53
2023/07/02 01:29:53;;;;;;;3.55;3.15;;;17.10;99.90;;;18.89;61.03;97080.75;5029792;28;20046;-54
2023/07/02 01:32:22;;;;;;;3.67;2.95;;;17.20;99.90;;;18.90;61.20;97089.66;5031233;28;20046;-53
2023/07/02 01:34:53;;;;;;;4.95;3.25;;;17.20;99.90;;;18.93;61.13;97083.84;5029740;28;20041;-54
2023/07/02 01:37:20;;;;;;;3.92;3.08;;;17.20;99.90;;;18.96;61.09;97091.47;5029783;28;20416;-52
2023/07/02 01:39:48;;;;;;;4.10;2.53;;;17.20;99.90;;;18.94;61.07;97081.94;5031544;28;20045;-53
2023/07/02 01:42:20;;;;;;;4.93;3.10;;;17.20;99.90;;;18.90;61.19;97084.28;5030021;28;20505;-53
2023/07/02 01:44:52;;;;;;;3.92;2.90;;;17.10;99.90;;;18.92;60.97;97081.34;5031311;28;20044;-54
2023/07/02 01:47:20;;;;;;;6.15;3.53;;;17.20;99.90;;;18.90;61.10;97076.19;5030885;28;20048;-54
2023/07/02 01:49:48;;;;;;;4.63;3.65;;;17.20;99.90;;;18.93;60.92;97073.03;5012441;28;20052;-53
2023/07/02 01:52:16;;;;;;;4.00;3.40;;;17.20;99.90;;;18.94;60.87;97071.16;5030691;28;20428;-55
2023/07/02 01:54:45;;;;;;;9.73;4.43;;;17.20;99.90;;;18.95;60.96;97067.44;5030913;28;20516;-54
2023/07/02 01:57:12;;;;;;;6.47;3.55;;;17.10;99.90;;;18.85;61.10;97071.47;5029611;28;20064;-53
2023/07/02 01:59:40;;;;;;;3.90;3.30;;;17.10;99.90;;;18.85;61.02;97071.47;5029250;28;20041;-54
2023/07/02 02:02:08;;;;;;;5.03;3.72;;;17.10;99.90;;;18.87;61.02;97074.78;5031046;28;20051;-54
2023/07/02 02:04:36;;;;;;;3.72;2.95;;;17.10;99.90;;;18.88;61.16;97081.84;5030468;28;20042;-54
2023/07/02 02:07:04;;;;;;;3.50;2.90;;;17.10;99.90;;;18.89;61.07;97082.66;5029574;28;20037;-54
2023/07/02 02:09:32;;;;;;;4.43;3.08;;;17.10;99.90;;;18.92;61.16;97090.28;5022094;28;20527;-52
2023/07/02 02:12:00;;;;;;;4.40;3.15;;;17.10;99.90;;;18.88;61.24;97092.63;5031454;28;20053;-51
2023/07/02 02:14:28;;;;;;;3.30;2.80;;;17.20;99.90;;;18.88;61.29;97086.38;5029757;28;20528;-55
2023/07/02 02:16:55;;;;;;;4.70;2.85;;;17.20;99.90;;;18.92;61.46;97087.59;5031079;28;20046;-55
2023/07/02 02:19:23;;;;;;;4.57;3.13;;;17.20;99.90;;;18.94;61.40;97084.66;5029407;28;20041;-55
2023/07/02 02:21:51;;;;;;;4.72;2.92;;;17.20;99.90;;;18.96;61.39;97087.94;5029342;28;20428;-54
2023/07/02 02:24:18;;;;;;;4.10;3.00;;;17.20;99.90;;;19.00;61.47;97086.41;5029750;28;20057;-54
2023/07/02 02:26:47;;;;;;;3.85;2.80;;;17.30;99.90;;;19.01;61.40;97088.09;5030934;28;20544;-54
2023/07/02 02:29:15;;;;;;;4.60;3.17;;;17.20;99.90;;;19.02;61.32;97087.03;5030337;28;20046;-54
2023/07/02 02:31:43;;;;;;;4.18;2.90;;;17.30;99.90;;;19.05;61.15;97090.09;5029837;28;20412;-53
2023/07/02 02:34:12;;;;;;;6.05;3.47;;;17.30;99.90;;;19.07;61.30;97093.38;5029785;28;20049;-54
2023/07/02 02:36:40;;;;;;;3.92;2.67;;;17.40;99.90;;;19.08;61.03;97089.63;5032480;28;20050;-53
2023/07/02 02:39:07;;;;;;;5.20;3.00;;;17.40;99.90;;;19.07;61.18;97093.38;5016067;28;20045;-53
2023/07/02 02:41:35;;;;;;;3.53;2.85;;;17.40;99.90;;;19.02;61.23;97087.88;5008722;28;20045;-55
2023/07/02 02:44:03;;;;;;;5.30;2.85;;;17.30;99.90;;;18.96;61.50;97091.47;5016875;28;20072;-53
2023/07/02 02:46:31;;;;;;;6.53;3.78;;;17.20;99.90;;;18.99;61.37;97090.19;5032611;28;20085;-53
2023/07/02 02:48:59;;;;;;;4.72;3.15;;;17.30;99.90;;;18.98;61.45;97096.63;5032479;28;20049;-55
2023/07/02 02:51:26;;;;;;;4.93;3.38;;;17.30;99.90;;;18.84;61.99;97098.66;5032425;28;20060;-55
2023/07/02 02:53:54;;;;;;;5.78;3.83;;;17.20;99.90;;;18.72;62.31;97103.97;5034250;28;20037;-53
2023/07/02 02:56:21;;;;;;;3.80;3.17;;;17.10;99.90;;;18.54;62.91;97107.50;5034067;28;20045;-55
2023/07/02 02:58:49;;;;;;;6.78;3.83;;;17.00;99.90;;;18.62;62.76;97120.69;5032953;28;20053;-54
2023/07/02 03:01:17;;;;;;;5.78;3.35;;;17.10;99.90;;;18.53;63.14;97123.91;5032517;28;20045;-53
2023/07/02 03:03:45;;;;;;;4.68;3.35;;;16.90;99.90;;;18.49;63.06;97131.63;5033439;28;20044;-52
2023/07/02 03:06:14;;;;;;;6.55;3.72;;;16.90;99.90;;;18.30;63.52;97128.91;5032638;28;20292;-54
2023/07/02 03:08:43;;;;;;;6.43;3.53;;;16.70;99.90;;;18.19;63.88;97131.53;5033536;28;20045;-53
2023/07/02 03:11:10;;;;;;;5.55;3.92;;;16.60;99.90;;;18.01;64.09;97127.75;5032922;28;20057;-54
2023/07/02 03:13:38;;;;;;;7.18;3.60;;;16.50;99.90;;;17.90;63.37;97134.66;5032523;28;20052;-54
2023/07/02 03:16:06;;;;;;;6.03;3.85;;;16.40;99.90;;;17.90;63.13;97134.66;5032473;28;20064;-49
2023/07/02 03:18:34;;;;;;;7.47;3.50;;;16.40;99.90;;;17.79;62.59;97139.91;5032153;28;20047;-53
2023/07/02 03:21:02;;;;;;;6.78;3.70;;;16.30;99.90;;;17.80;62.30;97142.41;5033423;28;20060;-55
2023/07/02 03:23:30;;;;;;;9.30;4.28;;;16.30;99.90;;;17.83;62.16;97147.31;5033626;28;20045;-52
2023/07/02 03:25:57;;;;;;;5.95;3.42;;;16.30;99.90;;;17.58;62.70;97147.31;5033980;28;20045;-51
2023/07/02 03:28:25;;;;;;;5.53;4.15;;;16.10;99.90;;;17.63;62.63;97158.25;5033044;28;20059;-52
2023/07/02 03:30:52;;;;;;;6.97;3.72;;;16.10;99.90;;;17.66;62.46;97148.91;5033211;28;20048;-52
2023/07/02 03:33:20;;;;;;;7.13;4.15;;;16.10;99.90;;;17.66;62.75;97152.44;5033565;28;20076;-55
2023/07/02 03:35:48;;;;;;;5.78;4.22;;;16.10;99.90;;;17.78;62.48;97155.25;5033452;28;20033;-53
2023/07/02 03:38:15;;;;;;;6.07;3.75;;;16.10;99.90;;;17.80;62.56;97160.44;5033453;28;20046;-53
2023/07/02 03:40:43;;;;;;;6.43;3.95;;;16.20;99.90;;;17.88;62.30;97166.38;5033159;28;20041;-54
2023/07/02 03:43:10;;;;;;;5.30;3.45;;;16.20;99.90;;;17.86;62.62;97167.66;5033317;28;20050;-54
2023/07/02 03:45:38;;;;;;;7.55;4.18;;;16.20;99.90;;;17.79;62.50;97169.53;5033171;28;20037;-53
2023/07/02 03:48:06;;;;;;;6.47;3.72;;;16.20;99.90;;;17.82;62.26;97163.72;5031701;28;20045;-53
2023/07/02 03:50:33;;;;;;;7.57;3.72;;;16.20;99.90;;;17.83;62.36;97171.56;5030931;28;20041;-53
2023/07/02 03:53:01;;;;;;;5.63;4.28;;;16.20;99.90;;;17.87;62.31;97171.97;5033125;28;20046;-55
2023/07/02 03:55:28;;;;;;;6.82;3.55;;;16.30;99.90;;;17.90;62.30;97171.56;5032994;28;20151;-52
2023/07/02 03:57:56;;;;;;;7.80;4.40;;;16.30;99.90;;;17.84;62.32;97177.81;5032965;28;20049;-54
2023/07/02 04:00:24;;;;;;;7.32;4.50;;;16.20;99.90;;;17.85;62.29;97174.88;5032502;28;20389;-54
2023/07/02 04:02:51;;;;;;;12.15;5.68;;;16.30;99.90;;;17.84;62.41;97180.50;5033091;28;20052;-53
2023/07/02 04:05:20;;;;;;;5.35;4.00;;;16.30;99.90;;;17.90;62.46;97175.06;5032889;28;20048;-54
2023/07/02 04:07:47;;;;;;;6.63;4.40;;;16.40;99.90;;;17.97;62.38;97172.34;5032879;28;20385;-54
2023/07/02 04:10:15;;;;;;;8.18;4.22;;;16.40;99.90;;;18.00;61.99;97171.88;5032411;28;20045;-54
2023/07/02 04:12:42;;;;;;;6.90;3.50;;;16.40;99.90;;;17.96;62.19;97180.63;5024848;28;20037;-54
2023/07/02 04:15:10;;;;;;;6.25;4.35;;;16.40;99.90;;;17.96;61.91;97178.75;5032677;28;20050;-52
2023/07/02 04:17:38;;;;;;;7.13;3.80;;;16.40;99.90;;;18.00;61.76;97179.97;5032335;28;20497;-52
2023/07/02 04:20:07;;;;;;;5.40;3.40;;;16.40;99.90;;;18.00;61.61;97179.13;5032070;28;20045;-54
2023/07/02 04:22:35;;;;;;;5.43;3.70;;;16.40;99.90;;;18.01;61.46;97175.38;5032539;28;20053;-54
2023/07/02 04:25:03;;;;;;;5.95;3.38;;;16.40;99.90;;;18.04;61.32;97180.34;5032529;28;20041;-52
2023/07/02 04:27:37;;;;;;;6.47;3.47;;;16.40;99.90;;;17.93;61.20;97179.19;5032096;28;20049;-52
2023/07/02 04:30:17;;;;;;;5.57;3.70;;;16.30;99.90;;;17.97;60.93;97190.34;5032185;28;20054;-55
2023/07/02 04:32:45;;;;;;;5.82;3.20;;;16.30;99.90;;;17.93;60.89;97192.63;5032481;28;20037;-53
2023/07/02 04:35:12;;;;;;;5.93;3.95;;;16.30;99.90;;;17.76;61.14;97197.72;5032163;28;20050;-53
2023/07/02 04:37:40;;;;;;;8.27;3.53;;;16.10;99.90;;;17.77;61.27;97198.53;5032090;28;20040;-54
2023/07/02 04:40:11;;;;;;;5.65;3.20;;;16.20;99.90;;;17.74;61.27;97199.81;5031827;28;20045;-53
2023/07/02 04:42:46;;;;;;;6.05;3.58;;;16.10;99.90;;;17.76;61.23;97197.72;5032137;28;20045;-52
2023/07/02 04:45:15;;;;;;;6.35;3.83;;;16.10;99.90;;;17.77;61.25;97199.34;5032201;28;20045;-52
2023/07/02 04:47:45;;;;;;;5.18;3.33;;;16.20;99.90;;;17.75;61.02;97200.63;5030852;28;20041;-54
2023/07/02 04:50:12;;;;;;;6.20;3.70;;;16.20;99.90;;;17.75;60.95;97198.75;5031056;28;20064;-51
2023/07/02 04:52:41;;;;;;;7.80;3.35;;;16.20;99.90;;;17.76;60.88;97204.94;5031747;28;20068;-55
2023/07/02 04:55:09;;;;;;;5.75;3.38;;;16.20;99.90;;;17.81;61.04;97205.13;5031944;28;20053;-52
2023/07/02 04:57:37;;;;;;;5.78;3.05;;;16.30;99.90;;;17.86;60.82;97199.97;5030542;28;20524;-53
2023/07/02 05:00:06;;;;;;;8.10;3.58;;;16.40;99.90;;;17.89;60.60;97210.28;5031476;28;20045;-54
2023/07/02 05:02:33;;;;;;;7.43;4.15;;;16.40;99.90;;;17.89;60.75;97212.97;5030617;28;20527;-52
2023/07/02 05:05:01;;;;;;;5.07;3.33;;;16.40;99.90;;;17.95;60.51;97212.13;5031636;28;20047;-53
2023/07/02 05:07:28;;;;;;;5.20;3.20;;;16.40;99.90;;;18.00;60.36;97214.97;5031448;28;20049;-51
2023/07/02 05:09:56;;;;;;;6.78;3.92;;;16.50;99.90;;;18.04;60.40;97212.66;5031572;28;20045;-52
2023/07/02 05:12:24;;;;;;;6.93;3.15;;;16.60;99.90;;;18.06;60.44;97218.66;5031582;28;20061;-51
2023/07/02 05:14:51;;;;;;;5.93;3.33;;;16.60;99.90;;;18.06;60.33;97219.47;5031664;28;20042;-52
2023/07/02 05:17:19;;;;;;;5.50;3.45;;;16.50;99.90;;;18.04;60.14;97224.25;5031248;28;20045;-55
2023/07/02 05:19:46;;;;;;;6.60;3.63;;;16.50;99.90;;;18.02;60.21;97223.66;5031269;28;20644;-55
2023/07/02 05:22:14;;;;;;;7.15;4.90;;;16.50;99.90;;;18.07;60.10;97225.72;5031229;28;20424;-52
2023/07/02 05:24:44;;;;;;;6.93;3.83;;;16.50;99.90;;;18.05;60.04;97228.63;5029820;28;20057;-53
2023/07/02 05:27:11;;;;;;;5.68;3.95;;;16.50;99.90;;;18.08;60.06;97230.84;5031795;28;20060;-54
2023/07/02 05:29:39;;;;;;;7.28;3.72;;;16.60;99.90;;;18.12;60.01;97233.94;5031076;28;20041;-52
2023/07/02 05:32:07;;;;;;;7.95;5.10;;;16.60;99.90;;;18.18;59.96;97230.34;5031605;28;20045;-54
2023/07/02 05:34:34;;;;;;;8.18;4.30;;;16.70;99.90;;;18.18;59.38;97240.31;5031233;28;20042;-52
2023/07/02 05:37:02;;;;;;;9.32;5.47;;;16.80;99.10;;;18.06;59.26;97234.81;5031355;28;20041;-55
2023/07/02 05:39:30;;;;;;;11.80;5.70;;;16.70;97.60;;;18.07;58.67;97242.69;5030731;28;20524;-55
2023/07/02 05:41:58;;;;;;;11.77;5.75;;;16.70;97.00;;;18.02;58.44;97242.50;5031063;28;20045;-54
2023/07/02 05:44:26;;;;;;;9.35;4.20;;;16.60;95.60;;;18.03;58.59;97238.78;5031186;28;20053;-51
2023/07/02 05:46:53;;;;;;;8.23;4.95;;;16.70;96.60;;;18.13;58.48;97240.16;5031545;28;20076;-51
2023/07/02 05:49:21;;;;;;;8.30;4.75;;;16.70;97.10;;;18.02;58.67;97236.31;5030509;28;20052;-55
2023/07/02 05:51:49;;;;;;;7.82;4.55;;;16.60;97.20;;;17.99;58.68;97244.81;5030401;28;20041;-54
2023/07/02 05:54:16;;;;;;;10.75;4.88;;;16.60;96.50;;;18.04;58.49;97239.59;5031053;28;20523;-52
2023/07/02 05:56:44;;;;;;;9.38;4.10;;;16.60;96.60;;;18.03;58.79;97246.88;5031089;28;20045;-55
2023/07/02 05:59:14;;;;;;;6.82;4.63;;;16.60;97.10;;;18.08;58.84;97251.59;5030634;28;20496;-55
2023/07/02 06:01:42;;;;;;;9.13;3.90;;;16.70;97.50;;;18.06;58.85;97251.78;5029670;28;20429;-55
2023/07/02 06:04:12;;;;;;;10.48;4.45;;;16.70;97.60;;;18.15;58.62;97260.44;5031080;28;20048;-55
2023/07/02 06:06:40;;;;;;;7.93;4.60;;;16.80;96.70;;;18.23;58.35;97257.47;5031060;28;20408;-55
2023/07/02 06:09:07;;;;;;;8.70;4.72;;;16.90;96.10;;;18.24;58.26;97266.38;5029616;28;20053;-56
2023/07/02 06:11:35;;;;;;;8.30;5.15;;;16.90;93.60;;;18.13;58.13;97264.41;5033767;28;20523;-54
2023/07/02 06:14:03;;;;;;;9.13;4.30;;;16.90;94.10;;;18.24;57.97;97264.53;5035037;28;20496;-53
2023/07/02 06:16:30;;;;;;;7.68;4.97;;;16.90;93.00;;;18.27;57.90;97269.47;5034682;28;20412;-55
2023/07/02 06:18:58;;;;;;;10.57;4.60;;;17.00;94.00;;;18.24;57.79;97267.22;5034474;28;20040;-55
2023/07/02 06:21:29;;;;;;;8.75;5.03;;;16.90;94.10;;;18.24;57.57;97263.69;5035081;28;20050;-55
2023/07/02 06:24:01;;;;;;;9.77;4.80;;;16.90;93.80;;;18.30;57.69;97268.22;5034893;28;20488;-52
2023/07/02 06:26:31;;;;;;;7.72;4.82;;;16.90;93.80;;;18.36;57.66;97267.34;5034726;28;20056;-55
2023/07/02 06:28:59;;;;;;;8.00;4.50;;;17.10;93.50;;;18.23;57.62;97272.81;5025574;28;20053;-54
2023/07/02 06:31:26;;;;;;;9.40;4.75;;;17.00;92.30;;;18.38;57.71;97273.31;5034616;28;20061;-55
2023/07/02 06:33:54;;;;;;;11.65;5.25;;;17.00;93.20;;;18.39;57.67;97272.25;5034574;28;20532;-55
2023/07/02 06:36:22;;;;;;;8.50;4.90;;;17.10;93.30;;;18.30;57.46;97274.41;5034553;28;20054;-54
2023/07/02 06:38:49;;;;;;;10.55;4.82;;;17.10;91.30;;;18.17;57.81;97279.91;5034127;28;20045;-54
2023/07/02 06:41:17;;;;;;;11.95;5.13;;;17.10;91.90;;;18.35;57.64;97283.72;5034326;28;20048;-50
2023/07/02 06:43:45;;;;;;;10.63;4.82;;;17.20;92.00;;;18.28;57.51;97279.22;5033055;28;20068;-55
2023/07/02 06:46:13;;;;;;;10.63;4.43;;;17.20;91.50;;;18.21;58.00;97280.31;5034360;28;20049;-54
2023/07/02 06:48:40;;;;;;;8.73;3.97;;;17.20;92.20;;;18.20;58.15;97289.41;5016032;28;20053;-55
2023/07/02 06:51:08;;;;;;;11.35;5.22;;;17.20;92.40;;;18.38;57.91;97286.81;5033534;28;20512;-52
2023/07/02 06:53:37;;;;;;;8.20;5.15;;;17.30;93.60;;;18.44;57.85;97280.53;5034236;28;20435;-53
2023/07/02 06:56:04;;;;;;;7.82;4.43;;;17.40;92.10;;;18.26;57.97;97293.91;5033951;28;20045;-53
2023/07/02 06:58:32;;;;;;;8.23;5.43;;;17.30;91.30;;;18.29;58.15;97288.94;5034030;28;20042;-55
2023/07/02 07:01:00;;;;;;;8.32;5.65;;;17.30;92.10;;;18.40;57.56;97291.97;5025996;28;20041;-55
2023/07/02 07:03:27;;;;;;;14.15;7.13;;;17.40;89.70;;;18.39;57.16;97287.63;5034073;28;20038;-54
2023/07/02 07:05:55;;;;;;;14.38;7.05;;;17.40;88.60;;;18.35;56.16;97291.81;5033857;28;20042;-53
2023/07/02 07:08:23;;;;;;;13.55;6.70;;;17.40;85.50;;;18.26;56.16;97289.38;5033636;28;20044;-55
2023/07/02 07:10:50;;;;;;;11.30;7.18;;;17.40;84.90;;;18.30;55.94;97295.97;5033951;28;20061;-53
2023/07/02 07:13:19;;;;;;;14.30;7.45;;;17.40;84.20;;;18.42;55.83;97292.59;5033987;28;20049;-49
2023/07/02 07:15:47;;;;;;;11.40;6.60;;;17.60;85.00;;;18.64;54.87;97290.31;5033711;28;20053;-53
2023/07/02 07:18:14;;;;;;;12.52;7.75;;;17.70;81.20;;;18.79;54.77;97292.66;5033652;28;20045;-53
2023/07/02 07:20:42;;;;;;;13.18;6.78;;;17.80;83.00;;;18.88;54.07;97288.63;5033085;28;20052;-51
2023/07/02 07:23:10;;;;;;;17.80;8.18;;;17.90;80.20;;;18.97;53.41;97290.00;5032450;28;20489;-52
2023/07/02 07:25:38;;;;;;;11.65;7.40;;;17.90;79.50;;;18.85;52.33;97286.41;5033394;28;20432;-53
2023/07/02 07:28:05;;;;;;;13.20;8.35;;;17.80;76.80;;;18.83;52.12;97302.81;5032512;28;20060;-52
2023/07/02 07:30:33;;;;;;;20.25;7.72;;;17.80;75.80;;;18.85;51.95;97297.19;5033097;28;20053;-54
2023/07/02 07:33:00;;;;;;;18.48;8.88;;;17.80;75.90;;;18.92;52.35;97291.72;5033586;28;20420;-53
2023/07/02 07:35:28;;;;;;;12.90;7.32;;;17.90;77.20;;;19.02;52.39;97300.97;5033854;28;20049;-54
2023/07/02 07:37:56;;;;;;;14.57;8.55;;;18.00;76.60;;;18.99;50.65;97300.59;5033357;28;20042;-54
2023/07/02 07:40:23;;;;;;;13.40;8.05;;;18.00;70.40;;;18.82;51.45;97295.75;5033467;28;20045;-54
2023/07/02 07:42:51;;;;;;;15.38;9.20;;;17.90;72.80;;;18.90;51.61;97297.34;5033276;28;20048;-55
2023/07/02 07:45:18;;;;;;;13.82;7.65;;;18.00;72.80;;;19.12;51.77;97296.94;5033147;28;20073;-54
2023/07/02 07:47:46;;;;;;;15.98;8.65;;;18.10;74.30;;;19.24;51.87;97305.91;5033013;28;20053;-54
2023/07/02 07:50:13;;;;;;;17.42;8.13;;;18.20;74.10;;;19.22;51.18;97302.63;5032423;28;20052;-54
2023/07/02 07:52:43;;;;;;;14.20;9.43;;;18.30;71.10;;;19.26;51.19;97298.41;5031720;28;20045;-54
2023/07/02 07:55:11;;;;;;;14.00;9.13;;;18.40;72.10;;;19.31;50.12;97312.06;5031813;28;20045;-54
2023/07/02 07:57:38;;;;;;;16.35;8.65;;;18.40;68.90;;;19.29;50.08;97303.38;5032183;28;20496;-54
2023/07/02 08:00:09;;;;;;;14.75;8.77;;;18.40;69.30;;;19.36;50.64;97312.19;5032557;28;20048;-51
2023/07/02 08:02:45;;;;;;;16.30;9.73;;;18.50;70.10;;;19.35;48.96;97315.97;5032951;28;20049;-55
2023/07/02 08:05:13;;;;;;;16.10;10.65;;;18.50;66.40;;;19.38;49.89;97303.88;5032819;28;20045;-54
2023/07/02 08:07:41;;;;;;;16.88;10.27;;;18.50;68.30;;;19.27;48.45;97303.59;5032559;28;20049;-54
2023/07/02 08:10:09;;;;;;;18.08;9.50;;;18.40;65.30;;;19.39;48.33;97303.66;5032505;28;20050;-53
2023/07/02 08:12:37;;;;;;;16.95;9.05;;;18.50;65.90;;;19.53;48.77;97296.22;5032681;28;20049;-54
2023/07/02 08:15:05;;;;;;;15.40;10.68;;;18.60;66.10;;;19.38;49.20;97287.69;5032609;28;20050;-53
2023/07/02 08:17:34;;;;;;;17.27;9.63;;;18.50;65.90;;;19.58;48.93;97292.84;5032220;28;20046;-56
2023/07/02 08:20:04;;;;;;;16.88;9.20;;;18.70;67.00;;;19.46;48.10;97287.38;5032883;28;20078;-51
2023/07/02 08:22:31;;;;;;;17.45;10.75;;;18.70;63.70;;;19.64;48.25;97291.94;5032340;28;20041;-55
2023/07/02 08:24:59;;;;;;;16.25;10.45;;;18.80;64.00;;;19.67;48.19;97302.28;5032319;28;20034;-55
2023/07/02 08:27:26;;;;;;;17.05;9.50;;;18.80;63.80;;;19.70;48.16;97295.59;5032195;28;20438;-57
2023/07/02 08:29:54;;;;;;;16.67;9.70;;;18.80;64.90;;;19.64;46.71;97300.06;5032059;28;20520;-53
2023/07/02 08:32:22;;;;;;;15.32;9.60;;;18.80;60.80;;;19.59;46.75;97298.00;5032404;28;20052;-55
2023/07/02 08:34:50;;;;;;;14.90;9.77;;;18.90;61.60;;;19.58;46.63;97298.22;5031894;28;20049;-56
2023/07/02 08:37:19;;;;;;;18.27;10.95;;;18.90;61.30;;;19.78;46.91;97295.31;5032186;28;20113;-54
2023/07/02 08:39:49;;;;;;;15.23;9.48;;;19.00;62.60;;;19.94;46.52;97294.66;5031820;28;20057;-55
2023/07/02 08:42:18;;;;;;;18.35;10.00;;;19.10;61.50;;;20.20;46.79;97301.56;5032075;28;20045;-55
2023/07/02 08:44:54;;;;;;;18.88;11.18;;;19.40;62.40;;;20.15;46.04;97295.22;5031998;28;20516;-53
2023/07/02 08:47:21;;;;;;;15.27;9.45;;;19.40;60.20;;;20.02;45.52;97302.44;5031740;28;20456;-53
2023/07/02 08:49:50;;;;;;;18.13;10.00;;;19.30;59.20;;;20.09;46.10;97309.66;5029748;28;20060;-52
2023/07/02 08:52:18;;;;;;;19.55;10.45;;;19.20;61.20;;;20.12;45.38;97306.47;5030837;28;20076;-53
2023/07/02 08:54:45;;;;;;;19.33;11.00;;;19.10;60.30;;;20.23;46.53;97303.81;5031820;28;20053;-55
2023/07/02 08:57:13;;;;;;;16.40;10.18;;;19.20;61.90;;;20.42;45.97;97304.56;5032075;28;20050;-54
2023/07/02 08:59:40;;;;;;;19.33;9.77;;;19.50;60.10;;;20.49;45.42;97309.88;5032086;28;20045;-54
2023/07/02 09:02:08;;;;;;;15.13;9.63;;;19.60;60.90;;;20.56;45.45;97301.63;5031770;28;20049;-55
2023/07/02 09:04:36;;;;;;;18.73;9.93;;;19.70;59.40;;;20.71;45.35;97303.91;5031779;28;20473;-53
2023/07/02 09:07:04;;;;;;;18.92;11.23;;;19.80;59.50;;;20.59;45.42;97301.19;5031670;28;20056;-55
2023/07/02 09:09:43;;;;;;;21.73;13.55;;;19.80;58.20;;;20.62;44.52;97298.03;5031968;28;20139;-54
2023/07/02 09:12:26;;;;;;;20.65;11.23;;;19.80;57.40;;;20.58;43.35;97310.34;5023855;28;20053;-54
2023/07/02 09:15:03;;;;;;;22.70;11.00;;;19.90;55.80;;;20.79;44.19;97326.03;5031420;28;20520;-52
2023/07/02 09:17:33;;;;;;;23.85;12.35;;;20.00;56.80;;;20.71;44.26;97306.63;5030324;28;20531;-55
2023/07/02 09:20:06;;;;;;;20.55;12.95;;;20.00;56.40;;;20.84;44.13;97306.41;5030876;28;20056;-54
2023/07/02 09:22:35;;;;;;;;;;;20.10;57.20;;;20.94;43.69;97301.22;5032091;28;20060;-56
2023/07/02 09:25:03;;;;;;;21.80;13.05;;;20.20;56.20;;;20.89;43.41;97302.97;5031135;28;19925;-52
2023/07/02 09:27:41;;;;;;;20.85;11.80;;;20.10;55.60;;;20.95;42.51;97318.25;5030171;28;20425;-53
2023/07/02 09:30:15;;;;;;;21.75;11.70;;;20.10;54.90;;;20.74;43.58;97303.44;5031100;28;20045;-53
2023/07/02 09:32:45;;;;;;;21.02;11.50;;;20.00;55.80;;;20.75;42.92;97308.63;5031420;28;20420;-55
2023/07/02 09:35:14;;;;;;;22.30;12.43;;;20.00;55.00;;;20.82;43.18;97314.75;5023439;28;20522;-54
2023/07/02 09:37:44;;;;;;;21.67;12.73;;;20.00;54.50;;;20.81;42.77;97307.66;5030961;28;20415;-53
2023/07/02 09:40:12;;;;;;;19.30;11.90;;;20.10;54.80;;;20.94;43.29;97297.69;5031040;28;20048;-50
2023/07/02 09:42:40;;;;;;;21.55;12.23;;;20.20;55.30;;;20.94;42.68;97322.84;5030074;28;20049;-54
2023/07/02 09:45:10;;;;;;;19.25;11.57;;;20.30;54.30;;;21.16;42.61;97306.03;5029247;28;20037;-54
2023/07/02 09:47:47;;;;;;;19.15;11.80;;;20.40;54.50;;;21.09;42.55;97308.03;5030000;28;20048;-53
2023/07/02 09:50:17;;;;;;;20.33;12.80;;;20.40;53.80;;;21.10;41.67;97298.84;5022349;28;20045;-55
2023/07/02 09:52:47;;;;;;;19.20;12.45;;;20.40;52.80;;;20.94;41.92;97287.69;5031081;28;20440;-54
2023/07/02 09:55:16;;;;;;;18.42;12.48;;;20.30;53.60;;;21.16;42.51;97292.47;5031443;28;20045;-55
2023/07/02 09:57:44;;;;;;;21.05;11.35;;;20.30;54.30;;;21.25;42.07;97291.06;5030898;28;20049;-52
2023/07/02 10:00:14;;;;;;;17.33;11.73;;;20.40;53.80;;;21.26;41.90;97291.88;5030696;28;20065;-53
2023/07/02 10:02:41;;;;;;;19.83;10.88;;;20.50;53.00;;;;;;5038662;28;20046;-55
2023/07/02 10:05:09;;;;;;;14.85;9.25;;;20.70;51.40;;;21.28;41.40;97292.47;5029723;28;20784;-52
2023/07/02 10:07:37;;;;;;;19.67;11.77;;;20.90;51.40;;;21.33;41.91;97285.28;5030821;28;20048;-54
2023/07/02 10:10:06;;;;;;;19.65;12.00;;;20.80;52.70;;;21.32;41.99;97286.31;5029972;28;20064;-55
2023/07/02 10:12:34;;;;;;;18.58;12.20;;;20.70;52.90;;;21.52;41.99;97295.97;5030993;28;20042;-54
2023/07/02 10:15:01;;;;;;;20.23;12.02;;;20.70;54.00;;;21.47;42.32;97296.69;5030771;28;20072;-53
2023/07/02 10:17:32;;;;;;;17.88;12.00;;;20.70;53.40;;;21.56;41.86;97289.84;5037504;28;20440;-54
2023/07/02 10:20:07;;;;;;;23.40;12.57;;;20.70;54.00;;;21.53;42.21;97284.88;5030566;28;20044;-54